Ozette, Washington
Current Conditions -  °F | °C
As of 10:53 PM on Sunday 23 Nov 2014 (Local Time) from KUIL Reporting Station
Clear Clear  
Wind Chill: 38°   Ceiling: Unl
Heat Index: 42°   Visibility: 7mi
Dew Point: 42°   Wind: 6mph
Humidity: 100%   Direction: 80°E
Pressure: 30.31"   Gusts: NA
Location:  48.1788°N, 124.127°W
Report Text: KUIL 240653Z AUTO 08005KT 7SM CLR 06/06 A3031 RMK AO2 SLP263 T00560056
Loading
Personal Weather Stations






























Interactive Weather Map New forecast layout! Learn more

10-Day Weather Forecast

Advertisements
Track Severe Weather on mobile